sensor_id;sensor_type;location;lat;lon;timestamp;temperature;humidity
15341;DHT22;7770;52.158;5.372;2024-02-28T00:01:31;3.10;99.90
15341;DHT22;7770;52.158;5.372;2024-02-28T00:04:18;3.20;99.90
15341;DHT22;7770;52.158;5.372;2024-02-28T00:07:04;3.30;99.90
15341;DHT22;7770;52.158;5.372;2024-02-28T00:09:50;3.30;99.90
15341;DHT22;7770;52.158;5.372;2024-02-28T00:12:36;3.20;99.90
15341;DHT22;7770;52.158;5.372;2024-02-28T00:15:23;3.20;99.90
15341;DHT22;7770;52.158;5.372;2024-02-28T00:18:09;3.10;99.90
15341;DHT22;7770;52.158;5.372;2024-02-28T00:20:55;3.00;99.90
15341;DHT22;7770;52.158;5.372;2024-02-28T00:23:41;2.90;99.90
15341;DHT22;7770;52.158;5.372;2024-02-28T00:26:27;2.80;99.90
15341;DHT22;7770;52.158;5.372;2024-02-28T00:29:13;2.70;99.90
15341;DHT22;7770;52.158;5.372;2024-02-28T00:31:59;2.60;99.90
15341;DHT22;7770;52.158;5.372;2024-02-28T00:34:45;2.50;99.90
15341;DHT22;7770;52.158;5.372;2024-02-28T00:37:31;2.60;99.90
15341;DHT22;7770;52.158;5.372;2024-02-28T00:40:17;2.50;99.90
15341;DHT22;7770;52.158;5.372;2024-02-28T00:43:03;2.50;99.90
15341;DHT22;7770;52.158;5.372;2024-02-28T00:45:49;2.50;99.90
15341;DHT22;7770;52.158;5.372;2024-02-28T00:48:35;2.40;99.90
15341;DHT22;7770;52.158;5.372;2024-02-28T00:51:21;2.40;99.90
15341;DHT22;7770;52.158;5.372;2024-02-28T00:54:07;2.40;99.90
15341;DHT22;7770;52.158;5.372;2024-02-28T00:56:54;2.40;99.90
15341;DHT22;7770;52.158;5.372;2024-02-28T00:59:40;2.30;99.90
15341;DHT22;7770;52.158;5.372;2024-02-28T01:02:26;2.20;99.90
15341;DHT22;7770;52.158;5.372;2024-02-28T01:05:12;2.30;99.90
15341;DHT22;7770;52.158;5.372;2024-02-28T01:07:57;2.20;99.90
15341;DHT22;7770;52.158;5.372;2024-02-28T01:10:44;2.20;99.90
15341;DHT22;7770;52.158;5.372;2024-02-28T01:13:31;2.10;99.90
15341;DHT22;7770;52.158;5.372;2024-02-28T01:16:17;2.10;99.90
15341;DHT22;7770;52.158;5.372;2024-02-28T01:19:03;2.10;99.90
15341;DHT22;7770;52.158;5.372;2024-02-28T01:21:49;1.90;99.90
15341;DHT22;7770;52.158;5.372;2024-02-28T01:24:35;2.00;99.90
15341;DHT22;7770;52.158;5.372;2024-02-28T01:27:22;1.90;99.90
15341;DHT22;7770;52.158;5.372;2024-02-28T01:30:08;1.90;99.90
15341;DHT22;7770;52.158;5.372;2024-02-28T01:32:55;2.00;99.90
15341;DHT22;7770;52.158;5.372;2024-02-28T01:35:41;1.90;99.90
15341;DHT22;7770;52.158;5.372;2024-02-28T01:38:27;1.90;99.90
15341;DHT22;7770;52.158;5.372;2024-02-28T01:41:13;1.80;99.90
15341;DHT22;7770;52.158;5.372;2024-02-28T01:43:59;1.70;99.90
15341;DHT22;7770;52.158;5.372;2024-02-28T01:46:45;1.70;99.90
15341;DHT22;7770;52.158;5.372;2024-02-28T01:49:32;1.70;99.90
15341;DHT22;7770;52.158;5.372;2024-02-28T01:52:18;1.60;99.90
15341;DHT22;7770;52.158;5.372;2024-02-28T01:55:05;1.60;99.90
15341;DHT22;7770;52.158;5.372;2024-02-28T01:57:52;1.60;99.90
15341;DHT22;7770;52.158;5.372;2024-02-28T02:00:39;1.50;99.90
15341;DHT22;7770;52.158;5.372;2024-02-28T02:03:25;1.40;99.90
15341;DHT22;7770;52.158;5.372;2024-02-28T02:06:12;1.30;99.90
15341;DHT22;7770;52.158;5.372;2024-02-28T02:08:58;1.20;99.90
15341;DHT22;7770;52.158;5.372;2024-02-28T02:11:44;1.20;99.90
15341;DHT22;7770;52.158;5.372;2024-02-28T02:14:30;1.30;99.90
15341;DHT22;7770;52.158;5.372;2024-02-28T02:17:16;1.30;99.90
15341;DHT22;7770;52.158;5.372;2024-02-28T02:20:02;1.40;99.90
15341;DHT22;7770;52.158;5.372;2024-02-28T02:22:50;1.50;99.90
15341;DHT22;7770;52.158;5.372;2024-02-28T02:25:47;1.50;99.90
15341;DHT22;7770;52.158;5.372;2024-02-28T02:28:34;1.60;99.90
15341;DHT22;7770;52.158;5.372;2024-02-28T02:31:20;1.60;99.90
15341;DHT22;7770;52.158;5.372;2024-02-28T02:34:06;1.70;99.90
15341;DHT22;7770;52.158;5.372;2024-02-28T02:36:52;1.80;99.90
15341;DHT22;7770;52.158;5.372;2024-02-28T02:39:38;1.80;99.90
15341;DHT22;7770;52.158;5.372;2024-02-28T02:42:24;1.90;99.90
15341;DHT22;7770;52.158;5.372;2024-02-28T02:45:10;1.90;99.90
15341;DHT22;7770;52.158;5.372;2024-02-28T02:47:56;2.00;99.90
15341;DHT22;7770;52.158;5.372;2024-02-28T02:50:42;2.00;99.90
15341;DHT22;7770;52.158;5.372;2024-02-28T02:53:28;2.10;99.90
15341;DHT22;7770;52.158;5.372;2024-02-28T02:56:14;2.10;99.90
15341;DHT22;7770;52.158;5.372;2024-02-28T02:59:00;2.10;99.90
15341;DHT22;7770;52.158;5.372;2024-02-28T03:01:46;2.10;99.90
15341;DHT22;7770;52.158;5.372;2024-02-28T03:04:32;2.10;99.90
15341;DHT22;7770;52.158;5.372;2024-02-28T03:07:18;2.10;99.90
15341;DHT22;7770;52.158;5.372;2024-02-28T03:10:04;2.10;99.90
15341;DHT22;7770;52.158;5.372;2024-02-28T03:12:51;2.20;99.90
15341;DHT22;7770;52.158;5.372;2024-02-28T03:15:37;2.30;99.90
15341;DHT22;7770;52.158;5.372;2024-02-28T03:18:23;2.30;99.90
15341;DHT22;7770;52.158;5.372;2024-02-28T03:21:09;2.40;99.90
15341;DHT22;7770;52.158;5.372;2024-02-28T03:23:55;2.40;99.90
15341;DHT22;7770;52.158;5.372;2024-02-28T03:26:41;2.40;99.90
15341;DHT22;7770;52.158;5.372;2024-02-28T03:29:28;2.50;99.90
15341;DHT22;7770;52.158;5.372;2024-02-28T03:32:14;2.50;99.90
15341;DHT22;7770;52.158;5.372;2024-02-28T03:35:00;2.50;99.90
15341;DHT22;7770;52.158;5.372;2024-02-28T03:37:46;2.50;99.90
15341;DHT22;7770;52.158;5.372;2024-02-28T03:40:32;2.50;99.90
15341;DHT22;7770;52.158;5.372;2024-02-28T03:43:18;2.60;99.90
15341;DHT22;7770;52.158;5.372;2024-02-28T03:46:04;2.70;99.90
15341;DHT22;7770;52.158;5.372;2024-02-28T03:48:50;2.70;99.90
15341;DHT22;7770;52.158;5.372;2024-02-28T03:51:40;2.80;99.90
15341;DHT22;7770;52.158;5.372;2024-02-28T03:54:26;2.90;99.90
15341;DHT22;7770;52.158;5.372;2024-02-28T03:57:12;3.00;99.90
15341;DHT22;7770;52.158;5.372;2024-02-28T04:00:01;3.00;99.90
15341;DHT22;7770;52.158;5.372;2024-02-28T04:02:48;3.10;99.90
15341;DHT22;7770;52.158;5.372;2024-02-28T04:05:34;3.20;99.90
15341;DHT22;7770;52.158;5.372;2024-02-28T04:08:20;3.20;99.90
15341;DHT22;7770;52.158;5.372;2024-02-28T04:11:06;3.30;99.90
15341;DHT22;7770;52.158;5.372;2024-02-28T04:13:53;3.50;99.90
15341;DHT22;7770;52.158;5.372;2024-02-28T04:16:42;3.80;99.90
15341;DHT22;7770;52.158;5.372;2024-02-28T04:19:33;3.90;99.90
15341;DHT22;7770;52.158;5.372;2024-02-28T04:22:24;4.00;99.90
15341;DHT22;7770;52.158;5.372;2024-02-28T04:25:10;4.10;99.90
15341;DHT22;7770;52.158;5.372;2024-02-28T04:27:56;4.20;99.90
15341;DHT22;7770;52.158;5.372;2024-02-28T04:30:45;4.30;99.90
15341;DHT22;7770;52.158;5.372;2024-02-28T04:33:31;4.30;99.90
15341;DHT22;7770;52.158;5.372;2024-02-28T04:36:17;4.40;99.90
15341;DHT22;7770;52.158;5.372;2024-02-28T04:39:03;4.40;99.90
15341;DHT22;7770;52.158;5.372;2024-02-28T04:41:51;4.50;99.90
15341;DHT22;7770;52.158;5.372;2024-02-28T04:44:37;4.60;99.90
15341;DHT22;7770;52.158;5.372;2024-02-28T04:47:23;4.60;99.90
15341;DHT22;7770;52.158;5.372;2024-02-28T04:50:10;4.60;99.90
15341;DHT22;7770;52.158;5.372;2024-02-28T04:52:56;4.60;99.90
15341;DHT22;7770;52.158;5.372;2024-02-28T04:55:42;4.70;99.90
15341;DHT22;7770;52.158;5.372;2024-02-28T04:58:28;4.70;99.90
15341;DHT22;7770;52.158;5.372;2024-02-28T05:01:14;4.70;99.90
15341;DHT22;7770;52.158;5.372;2024-02-28T05:04:01;4.60;99.90
15341;DHT22;7770;52.158;5.372;2024-02-28T05:06:47;4.60;99.90
15341;DHT22;7770;52.158;5.372;2024-02-28T05:09:34;4.60;99.90
15341;DHT22;7770;52.158;5.372;2024-02-28T05:12:20;4.60;99.90
15341;DHT22;7770;52.158;5.372;2024-02-28T05:15:07;4.60;99.90
15341;DHT22;7770;52.158;5.372;2024-02-28T05:17:53;4.70;99.90
15341;DHT22;7770;52.158;5.372;2024-02-28T05:20:39;4.70;99.90
15341;DHT22;7770;52.158;5.372;2024-02-28T05:23:25;4.70;99.90
15341;DHT22;7770;52.158;5.372;2024-02-28T05:26:11;4.70;99.90
15341;DHT22;7770;52.158;5.372;2024-02-28T05:28:57;4.70;99.90
15341;DHT22;7770;52.158;5.372;2024-02-28T05:31:43;4.70;99.90
15341;DHT22;7770;52.158;5.372;2024-02-28T05:34:29;4.70;99.90
15341;DHT22;7770;52.158;5.372;2024-02-28T05:37:16;4.70;99.90
15341;DHT22;7770;52.158;5.372;2024-02-28T05:40:03;4.80;99.90
15341;DHT22;7770;52.158;5.372;2024-02-28T05:42:50;4.80;99.90
15341;DHT22;7770;52.158;5.372;2024-02-28T05:45:36;4.80;99.90
15341;DHT22;7770;52.158;5.372;2024-02-28T05:48:22;4.80;99.90
15341;DHT22;7770;52.158;5.372;2024-02-28T05:51:08;4.80;99.90
15341;DHT22;7770;52.158;5.372;2024-02-28T05:53:54;4.80;99.90
15341;DHT22;7770;52.158;5.372;2024-02-28T05:56:40;4.80;99.90
15341;DHT22;7770;52.158;5.372;2024-02-28T05:59:26;4.80;99.90
15341;DHT22;7770;52.158;5.372;2024-02-28T06:02:12;4.70;99.90
15341;DHT22;7770;52.158;5.372;2024-02-28T06:04:58;4.70;99.90
15341;DHT22;7770;52.158;5.372;2024-02-28T06:07:44;4.60;99.90
15341;DHT22;7770;52.158;5.372;2024-02-28T06:10:30;4.60;99.90
15341;DHT22;7770;52.158;5.372;2024-02-28T06:13:16;4.60;99.90
15341;DHT22;7770;52.158;5.372;2024-02-28T06:16:02;4.60;99.90
15341;DHT22;7770;52.158;5.372;2024-02-28T06:18:49;4.60;99.90
15341;DHT22;7770;52.158;5.372;2024-02-28T06:21:35;4.70;99.90
15341;DHT22;7770;52.158;5.372;2024-02-28T06:24:21;4.60;99.90
15341;DHT22;7770;52.158;5.372;2024-02-28T06:27:07;4.70;99.90
15341;DHT22;7770;52.158;5.372;2024-02-28T06:29:59;4.70;99.90
15341;DHT22;7770;52.158;5.372;2024-02-28T06:32:45;4.70;99.90
15341;DHT22;7770;52.158;5.372;2024-02-28T06:35:31;4.70;99.90
15341;DHT22;7770;52.158;5.372;2024-02-28T06:38:17;4.70;99.90
15341;DHT22;7770;52.158;5.372;2024-02-28T06:41:04;4.70;99.90
15341;DHT22;7770;52.158;5.372;2024-02-28T06:43:50;4.80;99.90
15341;DHT22;7770;52.158;5.372;2024-02-28T06:46:37;4.80;99.90
15341;DHT22;7770;52.158;5.372;2024-02-28T06:49:22;4.80;99.90
15341;DHT22;7770;52.158;5.372;2024-02-28T06:52:08;4.90;99.90
15341;DHT22;7770;52.158;5.372;2024-02-28T06:54:54;4.90;99.90
15341;DHT22;7770;52.158;5.372;2024-02-28T06:57:41;4.90;99.90
15341;DHT22;7770;52.158;5.372;2024-02-28T07:00:27;4.90;99.90
15341;DHT22;7770;52.158;5.372;2024-02-28T07:03:13;5.00;99.90
15341;DHT22;7770;52.158;5.372;2024-02-28T07:05:59;5.00;99.90
15341;DHT22;7770;52.158;5.372;2024-02-28T07:08:46;5.00;99.90
15341;DHT22;7770;52.158;5.372;2024-02-28T07:11:32;5.00;99.90
15341;DHT22;7770;52.158;5.372;2024-02-28T07:14:18;5.00;99.90
15341;DHT22;7770;52.158;5.372;2024-02-28T07:17:04;5.10;99.90
15341;DHT22;7770;52.158;5.372;2024-02-28T07:19:50;5.10;99.90
15341;DHT22;7770;52.158;5.372;2024-02-28T07:22:36;5.10;99.90
15341;DHT22;7770;52.158;5.372;2024-02-28T07:25:22;5.20;99.90
15341;DHT22;7770;52.158;5.372;2024-02-28T07:28:08;5.10;99.90
15341;DHT22;7770;52.158;5.372;2024-02-28T07:30:54;5.10;99.90
15341;DHT22;7770;52.158;5.372;2024-02-28T07:33:40;5.10;99.90
15341;DHT22;7770;52.158;5.372;2024-02-28T07:36:26;5.10;99.90
15341;DHT22;7770;52.158;5.372;2024-02-28T07:39:12;5.00;99.90
15341;DHT22;7770;52.158;5.372;2024-02-28T07:41:58;5.00;99.90
15341;DHT22;7770;52.158;5.372;2024-02-28T07:44:44;5.00;99.90
15341;DHT22;7770;52.158;5.372;2024-02-28T07:47:30;5.00;99.90
15341;DHT22;7770;52.158;5.372;2024-02-28T07:50:16;5.00;99.90
15341;DHT22;7770;52.158;5.372;2024-02-28T07:53:03;5.10;99.90
15341;DHT22;7770;52.158;5.372;2024-02-28T07:55:49;5.20;99.90
15341;DHT22;7770;52.158;5.372;2024-02-28T07:58:35;5.10;99.90
15341;DHT22;7770;52.158;5.372;2024-02-28T08:01:21;5.20;99.90
15341;DHT22;7770;52.158;5.372;2024-02-28T08:04:08;5.30;99.90
15341;DHT22;7770;52.158;5.372;2024-02-28T08:06:54;5.30;99.90
15341;DHT22;7770;52.158;5.372;2024-02-28T08:09:40;5.30;99.90
15341;DHT22;7770;52.158;5.372;2024-02-28T08:12:26;5.40;99.90
15341;DHT22;7770;52.158;5.372;2024-02-28T08:15:12;5.40;99.90
15341;DHT22;7770;52.158;5.372;2024-02-28T08:17:58;5.40;99.90
15341;DHT22;7770;52.158;5.372;2024-02-28T08:20:44;5.40;99.90
15341;DHT22;7770;52.158;5.372;2024-02-28T08:23:31;5.50;99.90
15341;DHT22;7770;52.158;5.372;2024-02-28T08:26:17;5.50;99.90
15341;DHT22;7770;52.158;5.372;2024-02-28T08:29:03;5.60;99.90
15341;DHT22;7770;52.158;5.372;2024-02-28T08:31:49;5.70;99.90
15341;DHT22;7770;52.158;5.372;2024-02-28T08:34:35;5.80;99.90
15341;DHT22;7770;52.158;5.372;2024-02-28T08:37:21;5.90;99.90
15341;DHT22;7770;52.158;5.372;2024-02-28T08:40:07;6.00;99.90
15341;DHT22;7770;52.158;5.372;2024-02-28T08:42:54;6.00;99.90
15341;DHT22;7770;52.158;5.372;2024-02-28T08:45:40;6.10;99.90
15341;DHT22;7770;52.158;5.372;2024-02-28T08:48:26;6.10;99.90
15341;DHT22;7770;52.158;5.372;2024-02-28T08:51:12;6.20;99.90
15341;DHT22;7770;52.158;5.372;2024-02-28T08:53:58;6.10;99.90
15341;DHT22;7770;52.158;5.372;2024-02-28T08:56:45;6.20;99.90
15341;DHT22;7770;52.158;5.372;2024-02-28T08:59:31;6.10;99.90
15341;DHT22;7770;52.158;5.372;2024-02-28T09:02:17;6.10;99.90
15341;DHT22;7770;52.158;5.372;2024-02-28T09:05:04;6.20;99.90
15341;DHT22;7770;52.158;5.372;2024-02-28T09:07:50;6.20;99.90
15341;DHT22;7770;52.158;5.372;2024-02-28T09:10:38;6.40;99.90
15341;DHT22;7770;52.158;5.372;2024-02-28T09:13:24;6.40;99.90
15341;DHT22;7770;52.158;5.372;2024-02-28T09:16:10;6.50;99.90
15341;DHT22;7770;52.158;5.372;2024-02-28T09:18:56;6.40;99.90
15341;DHT22;7770;52.158;5.372;2024-02-28T09:21:42;6.50;99.90
15341;DHT22;7770;52.158;5.372;2024-02-28T09:24:28;6.70;99.90
15341;DHT22;7770;52.158;5.372;2024-02-28T09:27:14;6.80;99.90
15341;DHT22;7770;52.158;5.372;2024-02-28T09:30:00;6.90;99.90
15341;DHT22;7770;52.158;5.372;2024-02-28T09:32:46;7.00;99.90
15341;DHT22;7770;52.158;5.372;2024-02-28T09:35:34;7.10;99.90
15341;DHT22;7770;52.158;5.372;2024-02-28T09:38:21;7.30;99.90
15341;DHT22;7770;52.158;5.372;2024-02-28T09:41:08;7.80;99.90
15341;DHT22;7770;52.158;5.372;2024-02-28T09:44:00;8.10;99.90
15341;DHT22;7770;52.158;5.372;2024-02-28T09:46:51;8.50;99.90
15341;DHT22;7770;52.158;5.372;2024-02-28T09:49:37;8.90;99.90
15341;DHT22;7770;52.158;5.372;2024-02-28T09:52:23;9.60;99.90
15341;DHT22;7770;52.158;5.372;2024-02-28T09:55:10;10.10;99.90
15341;DHT22;7770;52.158;5.372;2024-02-28T09:57:56;10.00;99.90
15341;DHT22;7770;52.158;5.372;2024-02-28T10:00:45;10.00;99.90
15341;DHT22;7770;52.158;5.372;2024-02-28T10:03:32;9.90;99.90
15341;DHT22;7770;52.158;5.372;2024-02-28T10:06:19;9.70;99.90
15341;DHT22;7770;52.158;5.372;2024-02-28T10:09:05;10.00;99.90
15341;DHT22;7770;52.158;5.372;2024-02-28T10:11:51;10.20;99.90
15341;DHT22;7770;52.158;5.372;2024-02-28T10:14:38;10.00;99.90
15341;DHT22;7770;52.158;5.372;2024-02-28T10:17:24;10.00;99.90
15341;DHT22;7770;52.158;5.372;2024-02-28T10:20:10;9.80;99.90
15341;DHT22;7770;52.158;5.372;2024-02-28T10:22:56;9.90;99.90
15341;DHT22;7770;52.158;5.372;2024-02-28T10:25:46;9.70;99.90
15341;DHT22;7770;52.158;5.372;2024-02-28T10:28:35;9.70;99.90
15341;DHT22;7770;52.158;5.372;2024-02-28T10:31:22;9.60;99.90
15341;DHT22;7770;52.158;5.372;2024-02-28T10:34:08;9.50;99.90
15341;DHT22;7770;52.158;5.372;2024-02-28T10:36:54;9.60;99.90
15341;DHT22;7770;52.158;5.372;2024-02-28T10:39:43;10.00;99.90
15341;DHT22;7770;52.158;5.372;2024-02-28T10:42:30;10.50;99.90
15341;DHT22;7770;52.158;5.372;2024-02-28T10:45:17;11.10;99.90
15341;DHT22;7770;52.158;5.372;2024-02-28T10:48:05;11.20;99.90
15341;DHT22;7770;52.158;5.372;2024-02-28T10:50:52;11.30;99.90
15341;DHT22;7770;52.158;5.372;2024-02-28T10:53:42;11.50;99.90
15341;DHT22;7770;52.158;5.372;2024-02-28T10:56:29;11.60;99.90
15341;DHT22;7770;52.158;5.372;2024-02-28T10:59:16;11.30;99.90
15341;DHT22;7770;52.158;5.372;2024-02-28T11:02:02;11.10;99.90
15341;DHT22;7770;52.158;5.372;2024-02-28T11:04:51;11.40;99.90
15341;DHT22;7770;52.158;5.372;2024-02-28T11:07:41;11.10;99.90
15341;DHT22;7770;52.158;5.372;2024-02-28T11:10:32;10.90;99.90
15341;DHT22;7770;52.158;5.372;2024-02-28T11:13:24;10.80;99.90
15341;DHT22;7770;52.158;5.372;2024-02-28T11:16:11;11.00;99.90
15341;DHT22;7770;52.158;5.372;2024-02-28T11:18:58;10.90;99.90
15341;DHT22;7770;52.158;5.372;2024-02-28T11:21:44;11.30;99.90
15341;DHT22;7770;52.158;5.372;2024-02-28T11:24:33;11.50;99.90
15341;DHT22;7770;52.158;5.372;2024-02-28T11:27:20;11.90;99.90
15341;DHT22;7770;52.158;5.372;2024-02-28T11:30:07;11.70;99.90
15341;DHT22;7770;52.158;5.372;2024-02-28T11:32:53;11.50;99.90
15341;DHT22;7770;52.158;5.372;2024-02-28T11:35:40;11.30;99.90
15341;DHT22;7770;52.158;5.372;2024-02-28T11:38:27;11.00;99.90
15341;DHT22;7770;52.158;5.372;2024-02-28T11:41:13;10.70;99.90
15341;DHT22;7770;52.158;5.372;2024-02-28T11:43:59;10.60;99.90
15341;DHT22;7770;52.158;5.372;2024-02-28T11:46:47;10.60;99.90
15341;DHT22;7770;52.158;5.372;2024-02-28T11:49:34;10.60;99.90
15341;DHT22;7770;52.158;5.372;2024-02-28T11:52:20;10.30;99.90
15341;DHT22;7770;52.158;5.372;2024-02-28T11:55:06;10.30;99.90
15341;DHT22;7770;52.158;5.372;2024-02-28T11:57:52;10.40;99.90
15341;DHT22;7770;52.158;5.372;2024-02-28T12:00:48;10.50;99.90
15341;DHT22;7770;52.158;5.372;2024-02-28T12:03:35;10.70;99.90
15341;DHT22;7770;52.158;5.372;2024-02-28T12:06:21;10.90;99.90
15341;DHT22;7770;52.158;5.372;2024-02-28T12:09:08;10.80;99.90
15341;DHT22;7770;52.158;5.372;2024-02-28T12:11:55;10.90;99.90
15341;DHT22;7770;52.158;5.372;2024-02-28T12:14:41;11.00;99.90
15341;DHT22;7770;52.158;5.372;2024-02-28T12:17:30;11.10;99.90
15341;DHT22;7770;52.158;5.372;2024-02-28T12:20:16;10.80;99.90
15341;DHT22;7770;52.158;5.372;2024-02-28T12:23:04;10.70;99.90
15341;DHT22;7770;52.158;5.372;2024-02-28T12:25:50;10.60;99.90
15341;DHT22;7770;52.158;5.372;2024-02-28T12:28:36;10.60;99.90
15341;DHT22;7770;52.158;5.372;2024-02-28T12:31:22;10.40;99.90
15341;DHT22;7770;52.158;5.372;2024-02-28T12:34:08;10.60;99.90
15341;DHT22;7770;52.158;5.372;2024-02-28T12:36:54;10.90;99.90
15341;DHT22;7770;52.158;5.372;2024-02-28T12:39:40;10.90;99.90
15341;DHT22;7770;52.158;5.372;2024-02-28T12:42:26;11.00;99.90
15341;DHT22;7770;52.158;5.372;2024-02-28T12:45:13;10.90;99.90
15341;DHT22;7770;52.158;5.372;2024-02-28T12:47:59;10.80;99.90
15341;DHT22;7770;52.158;5.372;2024-02-28T12:50:47;11.00;99.90
15341;DHT22;7770;52.158;5.372;2024-02-28T12:53:34;11.00;99.90
15341;DHT22;7770;52.158;5.372;2024-02-28T12:56:20;10.80;99.90
15341;DHT22;7770;52.158;5.372;2024-02-28T12:59:06;10.90;99.90
15341;DHT22;7770;52.158;5.372;2024-02-28T13:01:55;10.90;99.90
15341;DHT22;7770;52.158;5.372;2024-02-28T13:04:41;10.70;99.90
15341;DHT22;7770;52.158;5.372;2024-02-28T13:07:27;10.70;99.90
15341;DHT22;7770;52.158;5.372;2024-02-28T13:10:15;10.90;99.90
15341;DHT22;7770;52.158;5.372;2024-02-28T13:13:02;10.80;99.90
15341;DHT22;7770;52.158;5.372;2024-02-28T13:15:48;10.80;99.90
15341;DHT22;7770;52.158;5.372;2024-02-28T13:18:34;10.90;99.90
15341;DHT22;7770;52.158;5.372;2024-02-28T13:21:20;11.10;99.90
15341;DHT22;7770;52.158;5.372;2024-02-28T13:24:07;11.40;99.90
15341;DHT22;7770;52.158;5.372;2024-02-28T13:26:53;11.60;99.90
15341;DHT22;7770;52.158;5.372;2024-02-28T13:29:39;11.60;99.90
15341;DHT22;7770;52.158;5.372;2024-02-28T13:32:25;11.50;99.90
15341;DHT22;7770;52.158;5.372;2024-02-28T13:35:11;11.60;99.90
15341;DHT22;7770;52.158;5.372;2024-02-28T13:37:57;11.60;99.90
15341;DHT22;7770;52.158;5.372;2024-02-28T13:40:49;11.70;99.90
15341;DHT22;7770;52.158;5.372;2024-02-28T13:43:35;11.80;99.90
15341;DHT22;7770;52.158;5.372;2024-02-28T13:46:21;11.70;99.90
15341;DHT22;7770;52.158;5.372;2024-02-28T13:49:08;11.60;99.90
15341;DHT22;7770;52.158;5.372;2024-02-28T13:51:54;11.50;99.90
15341;DHT22;7770;52.158;5.372;2024-02-28T13:54:40;11.30;99.90
15341;DHT22;7770;52.158;5.372;2024-02-28T13:57:26;11.20;99.90
15341;DHT22;7770;52.158;5.372;2024-02-28T14:00:13;11.10;99.90
15341;DHT22;7770;52.158;5.372;2024-02-28T14:02:59;10.90;99.90
15341;DHT22;7770;52.158;5.372;2024-02-28T14:05:45;10.70;99.90
15341;DHT22;7770;52.158;5.372;2024-02-28T14:08:31;10.60;99.90
15341;DHT22;7770;52.158;5.372;2024-02-28T14:11:17;10.60;99.90
15341;DHT22;7770;52.158;5.372;2024-02-28T14:14:04;10.60;99.90
15341;DHT22;7770;52.158;5.372;2024-02-28T14:16:50;10.50;99.90
15341;DHT22;7770;52.158;5.372;2024-02-28T14:19:36;10.40;99.90
15341;DHT22;7770;52.158;5.372;2024-02-28T14:22:22;10.40;99.90
15341;DHT22;7770;52.158;5.372;2024-02-28T14:25:12;10.60;99.90
15341;DHT22;7770;52.158;5.372;2024-02-28T14:28:00;10.60;99.90
15341;DHT22;7770;52.158;5.372;2024-02-28T14:30:46;10.50;99.90
15341;DHT22;7770;52.158;5.372;2024-02-28T14:33:34;10.40;99.90
15341;DHT22;7770;52.158;5.372;2024-02-28T14:36:22;10.40;99.90
15341;DHT22;7770;52.158;5.372;2024-02-28T14:39:08;10.40;99.90
15341;DHT22;7770;52.158;5.372;2024-02-28T14:42:00;10.20;99.90
15341;DHT22;7770;52.158;5.372;2024-02-28T14:44:46;9.90;99.90
15341;DHT22;7770;52.158;5.372;2024-02-28T14:47:32;9.90;99.90
15341;DHT22;7770;52.158;5.372;2024-02-28T14:50:19;9.90;99.90
15341;DHT22;7770;52.158;5.372;2024-02-28T14:53:06;9.90;99.90
15341;DHT22;7770;52.158;5.372;2024-02-28T14:55:52;10.10;99.90
15341;DHT22;7770;52.158;5.372;2024-02-28T14:58:38;10.10;99.90
15341;DHT22;7770;52.158;5.372;2024-02-28T15:01:25;9.90;99.90
15341;DHT22;7770;52.158;5.372;2024-02-28T15:04:12;9.80;99.90
15341;DHT22;7770;52.158;5.372;2024-02-28T15:07:00;9.90;99.90
15341;DHT22;7770;52.158;5.372;2024-02-28T15:09:45;9.80;99.90
15341;DHT22;7770;52.158;5.372;2024-02-28T15:12:32;9.70;99.90
15341;DHT22;7770;52.158;5.372;2024-02-28T15:15:19;9.60;99.90
15341;DHT22;7770;52.158;5.372;2024-02-28T15:18:05;9.60;99.90
15341;DHT22;7770;52.158;5.372;2024-02-28T15:20:52;9.80;99.90
15341;DHT22;7770;52.158;5.372;2024-02-28T15:23:39;9.80;99.90
15341;DHT22;7770;52.158;5.372;2024-02-28T15:26:25;9.90;99.90
15341;DHT22;7770;52.158;5.372;2024-02-28T15:29:11;9.90;99.90
15341;DHT22;7770;52.158;5.372;2024-02-28T15:31:58;9.90;99.90
15341;DHT22;7770;52.158;5.372;2024-02-28T15:34:44;9.90;99.90
15341;DHT22;7770;52.158;5.372;2024-02-28T15:37:30;9.80;99.90
15341;DHT22;7770;52.158;5.372;2024-02-28T15:40:16;9.80;99.90
15341;DHT22;7770;52.158;5.372;2024-02-28T15:43:07;9.70;99.90
15341;DHT22;7770;52.158;5.372;2024-02-28T15:45:53;9.60;99.90
15341;DHT22;7770;52.158;5.372;2024-02-28T15:48:40;9.60;99.90
15341;DHT22;7770;52.158;5.372;2024-02-28T15:51:27;9.60;99.90
15341;DHT22;7770;52.158;5.372;2024-02-28T15:54:13;9.50;99.90
15341;DHT22;7770;52.158;5.372;2024-02-28T15:56:59;9.40;99.90
15341;DHT22;7770;52.158;5.372;2024-02-28T15:59:46;9.40;99.90
15341;DHT22;7770;52.158;5.372;2024-02-28T16:02:32;9.40;99.90
15341;DHT22;7770;52.158;5.372;2024-02-28T16:05:18;9.30;99.90
15341;DHT22;7770;52.158;5.372;2024-02-28T16:08:05;9.30;99.90
15341;DHT22;7770;52.158;5.372;2024-02-28T16:10:51;9.30;99.90
15341;DHT22;7770;52.158;5.372;2024-02-28T16:13:39;9.20;99.90
15341;DHT22;7770;52.158;5.372;2024-02-28T16:16:25;9.20;99.90
15341;DHT22;7770;52.158;5.372;2024-02-28T16:19:11;9.20;99.90
15341;DHT22;7770;52.158;5.372;2024-02-28T16:21:58;9.20;99.90
15341;DHT22;7770;52.158;5.372;2024-02-28T16:24:44;9.00;99.90
15341;DHT22;7770;52.158;5.372;2024-02-28T16:27:30;9.00;99.90
15341;DHT22;7770;52.158;5.372;2024-02-28T16:30:16;8.90;99.90
15341;DHT22;7770;52.158;5.372;2024-02-28T16:33:02;8.80;99.90
15341;DHT22;7770;52.158;5.372;2024-02-28T16:35:48;8.70;99.90
15341;DHT22;7770;52.158;5.372;2024-02-28T16:38:34;8.70;99.90
15341;DHT22;7770;52.158;5.372;2024-02-28T16:41:21;8.70;99.90
15341;DHT22;7770;52.158;5.372;2024-02-28T16:44:07;8.60;99.90
15341;DHT22;7770;52.158;5.372;2024-02-28T16:46:53;8.60;99.90
15341;DHT22;7770;52.158;5.372;2024-02-28T16:49:39;8.50;99.90
15341;DHT22;7770;52.158;5.372;2024-02-28T16:52:25;8.50;99.90
15341;DHT22;7770;52.158;5.372;2024-02-28T16:55:12;8.50;99.90
15341;DHT22;7770;52.158;5.372;2024-02-28T16:57:58;8.50;99.90
15341;DHT22;7770;52.158;5.372;2024-02-28T17:00:47;8.40;99.90
15341;DHT22;7770;52.158;5.372;2024-02-28T17:03:33;8.40;99.90
15341;DHT22;7770;52.158;5.372;2024-02-28T17:06:20;8.50;99.90
15341;DHT22;7770;52.158;5.372;2024-02-28T17:09:06;8.50;99.90
15341;DHT22;7770;52.158;5.372;2024-02-28T17:11:54;8.50;99.90
15341;DHT22;7770;52.158;5.372;2024-02-28T17:14:40;8.50;99.90
15341;DHT22;7770;52.158;5.372;2024-02-28T17:17:26;8.50;99.90
15341;DHT22;7770;52.158;5.372;2024-02-28T17:20:13;8.50;99.90
15341;DHT22;7770;52.158;5.372;2024-02-28T17:23:00;8.50;99.90
15341;DHT22;7770;52.158;5.372;2024-02-28T17:25:46;8.50;99.90
15341;DHT22;7770;52.158;5.372;2024-02-28T17:28:33;8.50;99.90
15341;DHT22;7770;52.158;5.372;2024-02-28T17:31:19;8.60;99.90
15341;DHT22;7770;52.158;5.372;2024-02-28T17:34:05;8.60;99.90
15341;DHT22;7770;52.158;5.372;2024-02-28T17:36:52;8.50;99.90
15341;DHT22;7770;52.158;5.372;2024-02-28T17:39:38;8.50;99.90
15341;DHT22;7770;52.158;5.372;2024-02-28T17:42:24;8.60;99.90
15341;DHT22;7770;52.158;5.372;2024-02-28T17:45:10;8.60;99.90
15341;DHT22;7770;52.158;5.372;2024-02-28T17:47:56;8.50;99.90
15341;DHT22;7770;52.158;5.372;2024-02-28T17:50:43;8.50;99.90
15341;DHT22;7770;52.158;5.372;2024-02-28T17:53:29;8.40;99.90
15341;DHT22;7770;52.158;5.372;2024-02-28T17:56:15;8.40;99.90
15341;DHT22;7770;52.158;5.372;2024-02-28T17:59:01;8.40;99.90
15341;DHT22;7770;52.158;5.372;2024-02-28T18:01:47;8.40;99.90